Louvain-la-Neuve, Belgium
Current Conditions -  °F | °C
As of 8:25 PM on Monday 24 Nov 2014 (Local Time) from EBBE Reporting Station
Scattered Clouds Scattered Clouds  
Wind Chill: 41°   Ceiling: Unl
Heat Index: 41°   Visibility: 6mi
Dew Point: 37°   Wind: 2mph
Humidity: 87%   Direction: NA
Pressure: 30.33"   Gusts: NA
Location:  50.67°N, 4.61°E
Report Text: EBBE 241925Z VRB02KT 9999 SCT250 05/03 Q1027 BLU BLU
Loading
Personal Weather Stations






























Interactive Weather Map New forecast layout! Learn more

10-Day Weather Forecast

Advertisements
Track Severe Weather on mobile